Terminal Aerodrome Forecast
Issued by NWS

Home | Current Version | Previous Version | Text Only | Print | Product List | Glossary On
Versions: 1 2 3 4 5 6 7 8 9 10 11 12 13 14
000
FTUS42 KMLB 261121
TAFLEE
TAF
KLEE 261121Z 2612/2712 21007KT P6SM SCT030 BKN120
     FM261800 VRB06KT P6SM VCTS BKN035CB
      TEMPO 2619/2622 3SM TSRA BKN030CB
     FM270000 VRB03KT P6SM VCSH SCT040 BKN070=

USA.gov is the U.S. government's official web portal to all federal, state and local government web resources and services.